sensor_id;sensor_type;location;lat;lon;timestamp;P1;durP1;ratioP1;P2;durP2;ratioP2
54388;SDS011;40975;50.390;8.640;2023-05-02T00:01:43;9.63;;;6.15;;
54388;SDS011;40975;50.390;8.640;2023-05-02T00:04:08;8.75;;;6.13;;
54388;SDS011;40975;50.390;8.640;2023-05-02T00:06:33;7.80;;;6.07;;
54388;SDS011;40975;50.390;8.640;2023-05-02T00:08:59;8.88;;;6.22;;
54388;SDS011;40975;50.390;8.640;2023-05-02T00:11:24;8.73;;;6.20;;
54388;SDS011;40975;50.390;8.640;2023-05-02T00:13:50;9.93;;;6.47;;
54388;SDS011;40975;50.390;8.640;2023-05-02T00:16:15;8.68;;;6.10;;
54388;SDS011;40975;50.390;8.640;2023-05-02T00:18:42;9.32;;;6.55;;
54388;SDS011;40975;50.390;8.640;2023-05-02T00:21:07;10.55;;;6.45;;
54388;SDS011;40975;50.390;8.640;2023-05-02T00:23:33;9.70;;;6.43;;
54388;SDS011;40975;50.390;8.640;2023-05-02T00:25:59;10.35;;;6.72;;
54388;SDS011;40975;50.390;8.640;2023-05-02T00:28:24;9.77;;;6.47;;
54388;SDS011;40975;50.390;8.640;2023-05-02T00:30:51;11.98;;;6.45;;
54388;SDS011;40975;50.390;8.640;2023-05-02T00:33:16;11.90;;;7.10;;
54388;SDS011;40975;50.390;8.640;2023-05-02T00:35:42;11.30;;;7.00;;
54388;SDS011;40975;50.390;8.640;2023-05-02T00:38:07;12.75;;;7.45;;
54388;SDS011;40975;50.390;8.640;2023-05-02T00:40:43;10.82;;;7.18;;
54388;SDS011;40975;50.390;8.640;2023-05-02T00:43:12;11.85;;;7.07;;
54388;SDS011;40975;50.390;8.640;2023-05-02T00:45:38;10.88;;;7.13;;
54388;SDS011;40975;50.390;8.640;2023-05-02T00:48:07;10.77;;;7.55;;
54388;SDS011;40975;50.390;8.640;2023-05-02T00:50:34;10.20;;;7.50;;
54388;SDS011;40975;50.390;8.640;2023-05-02T00:53:02;10.10;;;5.97;;
54388;SDS011;40975;50.390;8.640;2023-05-02T00:55:29;11.23;;;6.43;;
54388;SDS011;40975;50.390;8.640;2023-05-02T00:57:55;9.35;;;6.45;;
54388;SDS011;40975;50.390;8.640;2023-05-02T01:00:22;10.30;;;7.40;;
54388;SDS011;40975;50.390;8.640;2023-05-02T01:03:04;9.73;;;6.40;;
54388;SDS011;40975;50.390;8.640;2023-05-02T01:05:43;9.73;;;6.63;;
54388;SDS011;40975;50.390;8.640;2023-05-02T01:11:11;11.30;;;6.78;;
54388;SDS011;40975;50.390;8.640;2023-05-02T01:13:39;10.60;;;7.72;;
54388;SDS011;40975;50.390;8.640;2023-05-02T01:16:07;12.02;;;7.68;;
54388;SDS011;40975;50.390;8.640;2023-05-02T01:18:35;11.18;;;7.55;;
54388;SDS011;40975;50.390;8.640;2023-05-02T01:21:08;11.88;;;7.45;;
54388;SDS011;40975;50.390;8.640;2023-05-02T01:29:02;14.65;;;8.20;;
54388;SDS011;40975;50.390;8.640;2023-05-02T01:31:30;13.25;;;7.97;;
54388;SDS011;40975;50.390;8.640;2023-05-02T01:33:58;13.00;;;7.95;;
54388;SDS011;40975;50.390;8.640;2023-05-02T01:36:26;14.82;;;8.95;;
54388;SDS011;40975;50.390;8.640;2023-05-02T01:38:55;12.48;;;8.88;;
54388;SDS011;40975;50.390;8.640;2023-05-02T01:41:24;17.63;;;9.73;;
54388;SDS011;40975;50.390;8.640;2023-05-02T01:43:50;17.45;;;9.75;;
54388;SDS011;40975;50.390;8.640;2023-05-02T01:46:19;13.68;;;9.68;;
54388;SDS011;40975;50.390;8.640;2023-05-02T01:48:46;14.20;;;9.27;;
54388;SDS011;40975;50.390;8.640;2023-05-02T01:51:16;14.60;;;9.82;;
54388;SDS011;40975;50.390;8.640;2023-05-02T01:53:43;13.73;;;9.40;;
54388;SDS011;40975;50.390;8.640;2023-05-02T01:56:12;15.98;;;9.70;;
54388;SDS011;40975;50.390;8.640;2023-05-02T01:58:40;18.23;;;10.43;;
54388;SDS011;40975;50.390;8.640;2023-05-02T02:01:07;15.55;;;9.73;;
54388;SDS011;40975;50.390;8.640;2023-05-02T02:03:33;17.95;;;10.85;;
54388;SDS011;40975;50.390;8.640;2023-05-02T02:05:59;15.82;;;10.13;;
54388;SDS011;40975;50.390;8.640;2023-05-02T02:08:27;17.05;;;10.95;;
54388;SDS011;40975;50.390;8.640;2023-05-02T02:10:59;19.67;;;10.73;;
54388;SDS011;40975;50.390;8.640;2023-05-02T02:13:30;16.67;;;10.63;;
54388;SDS011;40975;50.390;8.640;2023-05-02T02:16:00;18.02;;;10.85;;
54388;SDS011;40975;50.390;8.640;2023-05-02T02:18:28;19.52;;;12.30;;
54388;SDS011;40975;50.390;8.640;2023-05-02T02:23:27;23.60;;;11.93;;
54388;SDS011;40975;50.390;8.640;2023-05-02T02:25:54;23.08;;;12.38;;
54388;SDS011;40975;50.390;8.640;2023-05-02T02:28:21;22.50;;;12.23;;
54388;SDS011;40975;50.390;8.640;2023-05-02T02:30:47;21.10;;;12.70;;
54388;SDS011;40975;50.390;8.640;2023-05-02T02:33:12;20.45;;;12.20;;
54388;SDS011;40975;50.390;8.640;2023-05-02T02:35:39;21.52;;;12.43;;
54388;SDS011;40975;50.390;8.640;2023-05-02T02:40:51;24.98;;;13.35;;
54388;SDS011;40975;50.390;8.640;2023-05-02T02:43:26;22.20;;;13.95;;
54388;SDS011;40975;50.390;8.640;2023-05-02T02:48:41;22.98;;;14.27;;
54388;SDS011;40975;50.390;8.640;2023-05-02T02:56:26;25.42;;;13.68;;
54388;SDS011;40975;50.390;8.640;2023-05-02T02:58:56;22.90;;;13.00;;
54388;SDS011;40975;50.390;8.640;2023-05-02T03:01:26;20.85;;;13.52;;
54388;SDS011;40975;50.390;8.640;2023-05-02T03:03:56;23.60;;;13.57;;
54388;SDS011;40975;50.390;8.640;2023-05-02T03:06:22;23.15;;;14.10;;
54388;SDS011;40975;50.390;8.640;2023-05-02T03:08:50;24.08;;;14.23;;
54388;SDS011;40975;50.390;8.640;2023-05-02T03:11:18;22.77;;;13.13;;
54388;SDS011;40975;50.390;8.640;2023-05-02T03:13:43;23.33;;;13.10;;
54388;SDS011;40975;50.390;8.640;2023-05-02T03:16:29;26.80;;;14.68;;
54388;SDS011;40975;50.390;8.640;2023-05-02T03:18:56;28.42;;;15.05;;
54388;SDS011;40975;50.390;8.640;2023-05-02T03:21:21;20.25;;;11.80;;
54388;SDS011;40975;50.390;8.640;2023-05-02T03:23:48;25.02;;;12.98;;
54388;SDS011;40975;50.390;8.640;2023-05-02T03:26:14;22.23;;;12.73;;
54388;SDS011;40975;50.390;8.640;2023-05-02T03:28:41;24.00;;;13.48;;
54388;SDS011;40975;50.390;8.640;2023-05-02T03:31:07;20.90;;;12.57;;
54388;SDS011;40975;50.390;8.640;2023-05-02T03:33:36;26.58;;;14.05;;
54388;SDS011;40975;50.390;8.640;2023-05-02T03:36:01;23.40;;;13.00;;
54388;SDS011;40975;50.390;8.640;2023-05-02T03:38:28;24.17;;;13.02;;
54388;SDS011;40975;50.390;8.640;2023-05-02T03:40:59;25.00;;;13.75;;
54388;SDS011;40975;50.390;8.640;2023-05-02T03:43:24;27.98;;;14.82;;
54388;SDS011;40975;50.390;8.640;2023-05-02T03:45:50;27.70;;;15.07;;
54388;SDS011;40975;50.390;8.640;2023-05-02T03:48:16;28.77;;;16.42;;
54388;SDS011;40975;50.390;8.640;2023-05-02T03:50:41;31.35;;;15.88;;
54388;SDS011;40975;50.390;8.640;2023-05-02T03:53:07;28.08;;;16.35;;
54388;SDS011;40975;50.390;8.640;2023-05-02T03:55:43;31.42;;;16.73;;
54388;SDS011;40975;50.390;8.640;2023-05-02T03:58:15;27.10;;;15.50;;
54388;SDS011;40975;50.390;8.640;2023-05-02T04:00:43;29.05;;;14.80;;
54388;SDS011;40975;50.390;8.640;2023-05-02T04:03:09;28.58;;;15.18;;
54388;SDS011;40975;50.390;8.640;2023-05-02T04:05:38;33.88;;;16.08;;
54388;SDS011;40975;50.390;8.640;2023-05-02T04:08:04;29.92;;;16.02;;
54388;SDS011;40975;50.390;8.640;2023-05-02T04:10:29;30.52;;;15.88;;
54388;SDS011;40975;50.390;8.640;2023-05-02T04:12:58;29.83;;;16.38;;
54388;SDS011;40975;50.390;8.640;2023-05-02T04:15:25;34.05;;;17.38;;
54388;SDS011;40975;50.390;8.640;2023-05-02T04:17:52;33.75;;;17.65;;
54388;SDS011;40975;50.390;8.640;2023-05-02T04:20:18;37.40;;;18.85;;
54388;SDS011;40975;50.390;8.640;2023-05-02T04:22:47;33.17;;;16.40;;
54388;SDS011;40975;50.390;8.640;2023-05-02T04:25:14;31.42;;;15.80;;
54388;SDS011;40975;50.390;8.640;2023-05-02T04:27:41;33.83;;;16.90;;
54388;SDS011;40975;50.390;8.640;2023-05-02T04:30:10;33.75;;;18.33;;
54388;SDS011;40975;50.390;8.640;2023-05-02T04:32:36;31.83;;;17.98;;
54388;SDS011;40975;50.390;8.640;2023-05-02T04:35:02;32.42;;;18.25;;
54388;SDS011;40975;50.390;8.640;2023-05-02T04:37:28;36.97;;;18.33;;
54388;SDS011;40975;50.390;8.640;2023-05-02T04:39:54;39.58;;;18.98;;
54388;SDS011;40975;50.390;8.640;2023-05-02T04:42:23;35.90;;;18.63;;
54388;SDS011;40975;50.390;8.640;2023-05-02T04:45:02;35.72;;;17.10;;
54388;SDS011;40975;50.390;8.640;2023-05-02T04:47:27;41.03;;;20.40;;
54388;SDS011;40975;50.390;8.640;2023-05-02T04:49:52;40.90;;;21.48;;
54388;SDS011;40975;50.390;8.640;2023-05-02T04:52:18;39.00;;;19.42;;
54388;SDS011;40975;50.390;8.640;2023-05-02T04:54:43;41.17;;;20.88;;
54388;SDS011;40975;50.390;8.640;2023-05-02T04:57:09;44.40;;;20.80;;
54388;SDS011;40975;50.390;8.640;2023-05-02T04:59:37;39.72;;;19.52;;
54388;SDS011;40975;50.390;8.640;2023-05-02T05:02:04;38.25;;;19.13;;
54388;SDS011;40975;50.390;8.640;2023-05-02T05:04:29;40.47;;;19.67;;
54388;SDS011;40975;50.390;8.640;2023-05-02T05:06:55;36.55;;;19.73;;
54388;SDS011;40975;50.390;8.640;2023-05-02T05:09:21;45.67;;;21.17;;
54388;SDS011;40975;50.390;8.640;2023-05-02T05:11:46;39.65;;;19.48;;
54388;SDS011;40975;50.390;8.640;2023-05-02T05:14:13;37.22;;;17.92;;
54388;SDS011;40975;50.390;8.640;2023-05-02T05:16:41;35.70;;;17.92;;
54388;SDS011;40975;50.390;8.640;2023-05-02T05:19:07;32.75;;;18.20;;
54388;SDS011;40975;50.390;8.640;2023-05-02T05:21:32;33.58;;;17.00;;
54388;SDS011;40975;50.390;8.640;2023-05-02T05:23:59;37.33;;;18.50;;
54388;SDS011;40975;50.390;8.640;2023-05-02T05:26:27;36.03;;;17.40;;
54388;SDS011;40975;50.390;8.640;2023-05-02T05:28:53;33.47;;;17.13;;
54388;SDS011;40975;50.390;8.640;2023-05-02T05:31:21;32.10;;;16.88;;
54388;SDS011;40975;50.390;8.640;2023-05-02T05:33:51;33.00;;;17.55;;
54388;SDS011;40975;50.390;8.640;2023-05-02T05:36:18;32.15;;;17.00;;
54388;SDS011;40975;50.390;8.640;2023-05-02T05:38:43;33.20;;;17.75;;
54388;SDS011;40975;50.390;8.640;2023-05-02T05:41:09;30.13;;;15.65;;
54388;SDS011;40975;50.390;8.640;2023-05-02T05:43:38;31.92;;;15.95;;
54388;SDS011;40975;50.390;8.640;2023-05-02T05:46:03;27.75;;;14.60;;
54388;SDS011;40975;50.390;8.640;2023-05-02T05:48:31;31.90;;;14.60;;
54388;SDS011;40975;50.390;8.640;2023-05-02T05:51:01;28.38;;;13.90;;
54388;SDS011;40975;50.390;8.640;2023-05-02T05:53:29;29.33;;;15.27;;
54388;SDS011;40975;50.390;8.640;2023-05-02T05:55:55;26.77;;;14.52;;
54388;SDS011;40975;50.390;8.640;2023-05-02T05:58:21;32.17;;;16.33;;
54388;SDS011;40975;50.390;8.640;2023-05-02T06:00:54;25.83;;;14.07;;
54388;SDS011;40975;50.390;8.640;2023-05-02T06:03:20;26.40;;;14.25;;
54388;SDS011;40975;50.390;8.640;2023-05-02T06:05:45;25.33;;;13.32;;
54388;SDS011;40975;50.390;8.640;2023-05-02T06:08:11;20.48;;;11.18;;
54388;SDS011;40975;50.390;8.640;2023-05-02T06:10:36;18.98;;;11.13;;
54388;SDS011;40975;50.390;8.640;2023-05-02T06:13:02;16.88;;;9.90;;
54388;SDS011;40975;50.390;8.640;2023-05-02T06:15:32;18.73;;;10.15;;
54388;SDS011;40975;50.390;8.640;2023-05-02T06:17:59;18.13;;;10.48;;
54388;SDS011;40975;50.390;8.640;2023-05-02T06:20:24;20.63;;;11.82;;
54388;SDS011;40975;50.390;8.640;2023-05-02T06:22:50;18.85;;;10.80;;
54388;SDS011;40975;50.390;8.640;2023-05-02T06:25:15;20.85;;;11.18;;
54388;SDS011;40975;50.390;8.640;2023-05-02T06:27:40;20.85;;;11.70;;
54388;SDS011;40975;50.390;8.640;2023-05-02T06:30:06;16.33;;;9.73;;
54388;SDS011;40975;50.390;8.640;2023-05-02T06:32:32;15.38;;;9.55;;
54388;SDS011;40975;50.390;8.640;2023-05-02T06:34:57;15.68;;;9.20;;
54388;SDS011;40975;50.390;8.640;2023-05-02T06:37:22;18.00;;;10.00;;
54388;SDS011;40975;50.390;8.640;2023-05-02T06:39:48;17.80;;;9.52;;
54388;SDS011;40975;50.390;8.640;2023-05-02T06:42:13;18.25;;;9.65;;
54388;SDS011;40975;50.390;8.640;2023-05-02T06:44:38;20.48;;;9.70;;
54388;SDS011;40975;50.390;8.640;2023-05-02T06:47:04;19.88;;;11.20;;
54388;SDS011;40975;50.390;8.640;2023-05-02T06:49:30;17.40;;;10.43;;
54388;SDS011;40975;50.390;8.640;2023-05-02T06:51:55;18.60;;;9.93;;
54388;SDS011;40975;50.390;8.640;2023-05-02T06:54:21;16.58;;;9.05;;
54388;SDS011;40975;50.390;8.640;2023-05-02T06:56:46;18.95;;;10.43;;
54388;SDS011;40975;50.390;8.640;2023-05-02T06:59:11;20.75;;;10.32;;
54388;SDS011;40975;50.390;8.640;2023-05-02T07:01:37;18.25;;;9.23;;
54388;SDS011;40975;50.390;8.640;2023-05-02T07:04:02;16.20;;;8.43;;
54388;SDS011;40975;50.390;8.640;2023-05-02T07:06:29;15.70;;;9.65;;
54388;SDS011;40975;50.390;8.640;2023-05-02T07:08:55;21.10;;;10.23;;
54388;SDS011;40975;50.390;8.640;2023-05-02T07:11:20;18.80;;;10.43;;
54388;SDS011;40975;50.390;8.640;2023-05-02T07:13:47;20.80;;;10.93;;
54388;SDS011;40975;50.390;8.640;2023-05-02T07:16:12;19.45;;;9.63;;
54388;SDS011;40975;50.390;8.640;2023-05-02T07:18:38;20.55;;;10.30;;
54388;SDS011;40975;50.390;8.640;2023-05-02T07:21:03;19.80;;;10.70;;
54388;SDS011;40975;50.390;8.640;2023-05-02T07:23:29;20.48;;;10.13;;
54388;SDS011;40975;50.390;8.640;2023-05-02T07:25:54;17.27;;;9.27;;
54388;SDS011;40975;50.390;8.640;2023-05-02T07:28:19;18.85;;;9.07;;
54388;SDS011;40975;50.390;8.640;2023-05-02T07:30:45;17.85;;;9.95;;
54388;SDS011;40975;50.390;8.640;2023-05-02T07:33:10;17.95;;;9.50;;
54388;SDS011;40975;50.390;8.640;2023-05-02T07:35:35;18.55;;;10.00;;
54388;SDS011;40975;50.390;8.640;2023-05-02T07:38:01;20.95;;;9.38;;
54388;SDS011;40975;50.390;8.640;2023-05-02T07:40:27;17.35;;;8.43;;
54388;SDS011;40975;50.390;8.640;2023-05-02T07:42:53;18.70;;;10.48;;
54388;SDS011;40975;50.390;8.640;2023-05-02T07:45:18;17.50;;;9.32;;
54388;SDS011;40975;50.390;8.640;2023-05-02T07:47:44;17.52;;;9.18;;
54388;SDS011;40975;50.390;8.640;2023-05-02T07:50:10;17.63;;;9.23;;
54388;SDS011;40975;50.390;8.640;2023-05-02T07:52:35;18.45;;;10.05;;
54388;SDS011;40975;50.390;8.640;2023-05-02T07:55:00;17.65;;;9.15;;
54388;SDS011;40975;50.390;8.640;2023-05-02T07:57:26;19.00;;;10.02;;
54388;SDS011;40975;50.390;8.640;2023-05-02T07:59:51;18.65;;;10.00;;
54388;SDS011;40975;50.390;8.640;2023-05-02T08:02:17;19.60;;;10.25;;
54388;SDS011;40975;50.390;8.640;2023-05-02T08:04:44;17.88;;;10.15;;
54388;SDS011;40975;50.390;8.640;2023-05-02T08:07:11;20.05;;;9.98;;
54388;SDS011;40975;50.390;8.640;2023-05-02T08:09:36;20.88;;;10.48;;
54388;SDS011;40975;50.390;8.640;2023-05-02T08:12:02;18.95;;;10.05;;
54388;SDS011;40975;50.390;8.640;2023-05-02T08:14:27;17.52;;;9.65;;
54388;SDS011;40975;50.390;8.640;2023-05-02T08:16:53;15.57;;;9.07;;
54388;SDS011;40975;50.390;8.640;2023-05-02T08:19:18;18.58;;;9.82;;
54388;SDS011;40975;50.390;8.640;2023-05-02T08:21:43;17.48;;;9.57;;
54388;SDS011;40975;50.390;8.640;2023-05-02T08:24:09;15.88;;;9.13;;
54388;SDS011;40975;50.390;8.640;2023-05-02T08:26:34;18.08;;;9.55;;
54388;SDS011;40975;50.390;8.640;2023-05-02T08:28:59;16.30;;;9.10;;
54388;SDS011;40975;50.390;8.640;2023-05-02T08:31:25;17.48;;;9.20;;
54388;SDS011;40975;50.390;8.640;2023-05-02T08:33:50;17.60;;;9.60;;
54388;SDS011;40975;50.390;8.640;2023-05-02T08:36:16;15.63;;;8.60;;
54388;SDS011;40975;50.390;8.640;2023-05-02T08:38:43;19.88;;;9.80;;
54388;SDS011;40975;50.390;8.640;2023-05-02T08:41:15;16.85;;;9.73;;
54388;SDS011;40975;50.390;8.640;2023-05-02T08:43:42;15.18;;;7.85;;
54388;SDS011;40975;50.390;8.640;2023-05-02T08:46:09;19.85;;;10.13;;
54388;SDS011;40975;50.390;8.640;2023-05-02T08:48:37;20.02;;;10.05;;
54388;SDS011;40975;50.390;8.640;2023-05-02T08:51:07;19.02;;;10.25;;
54388;SDS011;40975;50.390;8.640;2023-05-02T08:53:34;18.35;;;9.70;;
54388;SDS011;40975;50.390;8.640;2023-05-02T08:56:00;21.73;;;9.82;;
54388;SDS011;40975;50.390;8.640;2023-05-02T08:58:26;17.15;;;9.20;;
54388;SDS011;40975;50.390;8.640;2023-05-02T09:00:51;16.33;;;8.27;;
54388;SDS011;40975;50.390;8.640;2023-05-02T09:03:22;13.85;;;7.07;;
54388;SDS011;40975;50.390;8.640;2023-05-02T09:06:18;17.05;;;7.95;;
54388;SDS011;40975;50.390;8.640;2023-05-02T09:08:47;12.77;;;7.00;;
54388;SDS011;40975;50.390;8.640;2023-05-02T09:11:13;12.60;;;6.30;;
54388;SDS011;40975;50.390;8.640;2023-05-02T09:13:49;12.75;;;6.00;;
54388;SDS011;40975;50.390;8.640;2023-05-02T09:16:23;10.73;;;6.45;;
54388;SDS011;40975;50.390;8.640;2023-05-02T09:18:51;14.77;;;6.70;;
54388;SDS011;40975;50.390;8.640;2023-05-02T09:21:25;10.00;;;5.22;;
54388;SDS011;40975;50.390;8.640;2023-05-02T09:23:58;10.60;;;6.33;;
54388;SDS011;40975;50.390;8.640;2023-05-02T09:26:25;9.93;;;5.80;;
54388;SDS011;40975;50.390;8.640;2023-05-02T09:28:59;12.02;;;6.35;;
54388;SDS011;40975;50.390;8.640;2023-05-02T09:31:26;11.10;;;6.45;;
54388;SDS011;40975;50.390;8.640;2023-05-02T09:34:11;11.55;;;6.13;;
54388;SDS011;40975;50.390;8.640;2023-05-02T09:36:38;8.70;;;4.97;;
54388;SDS011;40975;50.390;8.640;2023-05-02T09:39:08;10.57;;;6.30;;
54388;SDS011;40975;50.390;8.640;2023-05-02T09:41:39;8.27;;;4.82;;
54388;SDS011;40975;50.390;8.640;2023-05-02T09:44:05;7.55;;;3.20;;
54388;SDS011;40975;50.390;8.640;2023-05-02T09:46:38;4.97;;;3.20;;
54388;SDS011;40975;50.390;8.640;2023-05-02T09:49:05;3.53;;;2.30;;
54388;SDS011;40975;50.390;8.640;2023-05-02T09:51:31;3.78;;;2.40;;
54388;SDS011;40975;50.390;8.640;2023-05-02T09:53:56;3.38;;;2.15;;
54388;SDS011;40975;50.390;8.640;2023-05-02T09:56:21;3.40;;;2.30;;
54388;SDS011;40975;50.390;8.640;2023-05-02T09:58:47;2.38;;;2.08;;
54388;SDS011;40975;50.390;8.640;2023-05-02T10:01:16;3.08;;;2.08;;
54388;SDS011;40975;50.390;8.640;2023-05-02T10:03:44;3.03;;;2.00;;
54388;SDS011;40975;50.390;8.640;2023-05-02T10:06:11;3.00;;;2.30;;
54388;SDS011;40975;50.390;8.640;2023-05-02T10:08:37;2.78;;;2.42;;
54388;SDS011;40975;50.390;8.640;2023-05-02T10:11:04;2.33;;;1.40;;
54388;SDS011;40975;50.390;8.640;2023-05-02T10:13:31;1.80;;;1.60;;
54388;SDS011;40975;50.390;8.640;2023-05-02T10:16:05;2.72;;;1.52;;
54388;SDS011;40975;50.390;8.640;2023-05-02T10:18:47;1.83;;;1.48;;
54388;SDS011;40975;50.390;8.640;2023-05-02T10:21:25;2.80;;;1.75;;
54388;SDS011;40975;50.390;8.640;2023-05-02T10:23:52;2.00;;;1.33;;
54388;SDS011;40975;50.390;8.640;2023-05-02T10:26:17;2.35;;;1.70;;
54388;SDS011;40975;50.390;8.640;2023-05-02T10:28:45;1.95;;;1.50;;
54388;SDS011;40975;50.390;8.640;2023-05-02T10:31:12;1.73;;;1.60;;
54388;SDS011;40975;50.390;8.640;2023-05-02T10:33:38;1.63;;;1.33;;
54388;SDS011;40975;50.390;8.640;2023-05-02T10:36:04;1.50;;;1.40;;
54388;SDS011;40975;50.390;8.640;2023-05-02T10:38:32;1.30;;;1.00;;
54388;SDS011;40975;50.390;8.640;2023-05-02T10:41:00;1.15;;;1.00;;
54388;SDS011;40975;50.390;8.640;2023-05-02T10:43:33;1.33;;;1.13;;
54388;SDS011;40975;50.390;8.640;2023-05-02T10:48:26;1.30;;;1.20;;
54388;SDS011;40975;50.390;8.640;2023-05-02T10:50:52;1.48;;;1.00;;
54388;SDS011;40975;50.390;8.640;2023-05-02T10:56:06;1.75;;;1.40;;
54388;SDS011;40975;50.390;8.640;2023-05-02T10:58:37;1.48;;;1.35;;
54388;SDS011;40975;50.390;8.640;2023-05-02T11:01:44;2.13;;;1.50;;
54388;SDS011;40975;50.390;8.640;2023-05-02T11:04:03;1.95;;;1.17;;
54388;SDS011;40975;50.390;8.640;2023-05-02T11:06:33;2.90;;;2.08;;
54388;SDS011;40975;50.390;8.640;2023-05-02T11:14:08;2.33;;;1.85;;
54388;SDS011;40975;50.390;8.640;2023-05-02T11:19:22;3.97;;;2.05;;
54388;SDS011;40975;50.390;8.640;2023-05-02T11:21:47;1.98;;;1.50;;
54388;SDS011;40975;50.390;8.640;2023-05-02T11:29:55;1.33;;;1.02;;
54388;SDS011;40975;50.390;8.640;2023-05-02T11:32:22;1.88;;;0.73;;
54388;SDS011;40975;50.390;8.640;2023-05-02T11:34:48;1.75;;;1.20;;
54388;SDS011;40975;50.390;8.640;2023-05-02T11:37:17;2.22;;;1.30;;
54388;SDS011;40975;50.390;8.640;2023-05-02T11:39:44;1.42;;;1.15;;
54388;SDS011;40975;50.390;8.640;2023-05-02T11:42:32;0.95;;;0.82;;
54388;SDS011;40975;50.390;8.640;2023-05-02T11:44:57;1.85;;;1.02;;
54388;SDS011;40975;50.390;8.640;2023-05-02T11:47:24;1.10;;;0.90;;
54388;SDS011;40975;50.390;8.640;2023-05-02T11:49:53;1.25;;;0.75;;
54388;SDS011;40975;50.390;8.640;2023-05-02T11:52:19;1.70;;;0.80;;
54388;SDS011;40975;50.390;8.640;2023-05-02T11:54:44;0.63;;;0.60;;
54388;SDS011;40975;50.390;8.640;2023-05-02T11:57:09;0.90;;;0.80;;
54388;SDS011;40975;50.390;8.640;2023-05-02T11:59:48;1.15;;;1.05;;
54388;SDS011;40975;50.390;8.640;2023-05-02T12:02:17;1.20;;;0.90;;
54388;SDS011;40975;50.390;8.640;2023-05-02T12:04:43;1.33;;;0.88;;
54388;SDS011;40975;50.390;8.640;2023-05-02T12:07:09;1.60;;;1.25;;
54388;SDS011;40975;50.390;8.640;2023-05-02T12:09:34;1.60;;;1.30;;
54388;SDS011;40975;50.390;8.640;2023-05-02T12:11:59;1.60;;;1.23;;
54388;SDS011;40975;50.390;8.640;2023-05-02T12:14:27;1.58;;;1.20;;
54388;SDS011;40975;50.390;8.640;2023-05-02T12:16:54;2.10;;;1.50;;
54388;SDS011;40975;50.390;8.640;2023-05-02T12:19:20;3.33;;;1.48;;
54388;SDS011;40975;50.390;8.640;2023-05-02T12:21:46;2.38;;;1.60;;
54388;SDS011;40975;50.390;8.640;2023-05-02T12:24:12;3.38;;;2.22;;
54388;SDS011;40975;50.390;8.640;2023-05-02T12:26:39;3.28;;;2.00;;
54388;SDS011;40975;50.390;8.640;2023-05-02T12:29:04;3.08;;;2.40;;
54388;SDS011;40975;50.390;8.640;2023-05-02T12:31:31;4.20;;;2.83;;
54388;SDS011;40975;50.390;8.640;2023-05-02T12:33:57;3.42;;;2.53;;
54388;SDS011;40975;50.390;8.640;2023-05-02T12:36:24;3.50;;;2.35;;
54388;SDS011;40975;50.390;8.640;2023-05-02T12:38:50;3.30;;;2.47;;
54388;SDS011;40975;50.390;8.640;2023-05-02T12:41:17;3.22;;;2.65;;
54388;SDS011;40975;50.390;8.640;2023-05-02T12:43:48;3.50;;;2.60;;
54388;SDS011;40975;50.390;8.640;2023-05-02T12:46:13;3.20;;;2.90;;
54388;SDS011;40975;50.390;8.640;2023-05-02T12:48:39;3.00;;;2.30;;
54388;SDS011;40975;50.390;8.640;2023-05-02T12:51:04;3.35;;;2.00;;
54388;SDS011;40975;50.390;8.640;2023-05-02T12:53:39;2.35;;;1.85;;
54388;SDS011;40975;50.390;8.640;2023-05-02T12:56:06;2.03;;;1.45;;
54388;SDS011;40975;50.390;8.640;2023-05-02T12:58:45;2.03;;;1.40;;
54388;SDS011;40975;50.390;8.640;2023-05-02T13:01:14;2.55;;;1.70;;
54388;SDS011;40975;50.390;8.640;2023-05-02T13:03:40;1.70;;;1.60;;
54388;SDS011;40975;50.390;8.640;2023-05-02T13:06:06;1.40;;;1.30;;
54388;SDS011;40975;50.390;8.640;2023-05-02T13:08:32;4.88;;;1.67;;
54388;SDS011;40975;50.390;8.640;2023-05-02T13:10:58;1.95;;;1.65;;
54388;SDS011;40975;50.390;8.640;2023-05-02T13:13:24;3.67;;;1.67;;
54388;SDS011;40975;50.390;8.640;2023-05-02T13:15:50;2.05;;;1.75;;
54388;SDS011;40975;50.390;8.640;2023-05-02T13:18:15;3.92;;;1.50;;
54388;SDS011;40975;50.390;8.640;2023-05-02T13:20:40;3.03;;;1.60;;
54388;SDS011;40975;50.390;8.640;2023-05-02T13:23:06;2.05;;;1.60;;
54388;SDS011;40975;50.390;8.640;2023-05-02T13:25:31;3.33;;;2.20;;
54388;SDS011;40975;50.390;8.640;2023-05-02T13:27:56;2.53;;;1.88;;
54388;SDS011;40975;50.390;8.640;2023-05-02T13:30:22;2.95;;;1.88;;
54388;SDS011;40975;50.390;8.640;2023-05-02T13:32:48;2.72;;;2.10;;
54388;SDS011;40975;50.390;8.640;2023-05-02T13:35:13;2.60;;;1.85;;
54388;SDS011;40975;50.390;8.640;2023-05-02T13:37:39;3.45;;;2.15;;
54388;SDS011;40975;50.390;8.640;2023-05-02T13:40:06;3.45;;;2.30;;
54388;SDS011;40975;50.390;8.640;2023-05-02T13:42:32;4.38;;;2.53;;
54388;SDS011;40975;50.390;8.640;2023-05-02T13:44:57;4.05;;;2.60;;
54388;SDS011;40975;50.390;8.640;2023-05-02T13:47:22;3.25;;;2.10;;
54388;SDS011;40975;50.390;8.640;2023-05-02T13:49:48;3.28;;;2.22;;
54388;SDS011;40975;50.390;8.640;2023-05-02T13:52:13;5.20;;;2.60;;
54388;SDS011;40975;50.390;8.640;2023-05-02T13:54:39;4.13;;;2.40;;
54388;SDS011;40975;50.390;8.640;2023-05-02T13:57:04;4.70;;;3.50;;
54388;SDS011;40975;50.390;8.640;2023-05-02T13:59:29;3.78;;;2.70;;
54388;SDS011;40975;50.390;8.640;2023-05-02T14:01:55;4.07;;;3.05;;
54388;SDS011;40975;50.390;8.640;2023-05-02T14:04:20;7.03;;;3.20;;
54388;SDS011;40975;50.390;8.640;2023-05-02T14:06:45;4.38;;;2.63;;
54388;SDS011;40975;50.390;8.640;2023-05-02T14:09:11;3.72;;;2.95;;
54388;SDS011;40975;50.390;8.640;2023-05-02T14:11:36;4.75;;;3.20;;
54388;SDS011;40975;50.390;8.640;2023-05-02T14:14:02;6.07;;;3.20;;
54388;SDS011;40975;50.390;8.640;2023-05-02T14:16:27;4.93;;;3.10;;
54388;SDS011;40975;50.390;8.640;2023-05-02T14:18:52;6.60;;;3.13;;
54388;SDS011;40975;50.390;8.640;2023-05-02T14:21:18;4.75;;;3.50;;
54388;SDS011;40975;50.390;8.640;2023-05-02T14:23:43;5.15;;;3.28;;
54388;SDS011;40975;50.390;8.640;2023-05-02T14:26:08;4.70;;;3.40;;
54388;SDS011;40975;50.390;8.640;2023-05-02T14:28:33;6.68;;;3.55;;
54388;SDS011;40975;50.390;8.640;2023-05-02T14:30:59;4.63;;;3.38;;
54388;SDS011;40975;50.390;8.640;2023-05-02T14:33:24;5.35;;;3.67;;
54388;SDS011;40975;50.390;8.640;2023-05-02T14:35:50;8.43;;;3.15;;
54388;SDS011;40975;50.390;8.640;2023-05-02T14:38:15;5.07;;;3.45;;
54388;SDS011;40975;50.390;8.640;2023-05-02T14:40:40;5.13;;;3.22;;
54388;SDS011;40975;50.390;8.640;2023-05-02T14:43:06;5.50;;;3.60;;
54388;SDS011;40975;50.390;8.640;2023-05-02T14:45:32;5.85;;;3.45;;
54388;SDS011;40975;50.390;8.640;2023-05-02T14:47:57;5.68;;;3.60;;
54388;SDS011;40975;50.390;8.640;2023-05-02T14:50:23;5.88;;;3.28;;
54388;SDS011;40975;50.390;8.640;2023-05-02T14:52:48;3.88;;;2.90;;
54388;SDS011;40975;50.390;8.640;2023-05-02T14:55:14;5.63;;;3.33;;
54388;SDS011;40975;50.390;8.640;2023-05-02T14:57:40;4.55;;;3.22;;
54388;SDS011;40975;50.390;8.640;2023-05-02T15:00:06;4.63;;;3.33;;
54388;SDS011;40975;50.390;8.640;2023-05-02T15:02:32;4.68;;;2.67;;
54388;SDS011;40975;50.390;8.640;2023-05-02T15:04:57;5.15;;;3.35;;
54388;SDS011;40975;50.390;8.640;2023-05-02T15:07:23;5.25;;;3.70;;
54388;SDS011;40975;50.390;8.640;2023-05-02T15:09:48;6.05;;;3.65;;
54388;SDS011;40975;50.390;8.640;2023-05-02T15:12:13;6.38;;;3.53;;
54388;SDS011;40975;50.390;8.640;2023-05-02T15:14:39;3.65;;;2.90;;
54388;SDS011;40975;50.390;8.640;2023-05-02T15:17:04;3.58;;;3.03;;